createdAt,value
2023-05-17T00:00:09.970Z,6.56
2023-05-17T00:02:36.877Z,6.50
2023-05-17T00:05:03.803Z,6.49
2023-05-17T00:07:30.571Z,6.39
2023-05-17T00:09:57.090Z,6.32
2023-05-17T00:12:23.451Z,6.28
2023-05-17T00:14:49.826Z,6.27
2023-05-17T00:17:16.826Z,6.33
2023-05-17T00:19:43.234Z,6.34
2023-05-17T00:22:09.634Z,6.31
2023-05-17T00:24:36.007Z,6.28
2023-05-17T00:27:02.493Z,6.20
2023-05-17T00:29:28.949Z,6.17
2023-05-17T00:31:55.421Z,6.16
2023-05-17T00:34:22.114Z,6.12
2023-05-17T00:36:48.639Z,6.11
2023-05-17T00:39:15.034Z,6.04
2023-05-17T00:41:41.550Z,6.07
2023-05-17T00:44:08.125Z,6.04
2023-05-17T00:46:34.707Z,6.02
2023-05-17T00:49:01.198Z,6.07
2023-05-17T00:51:28.796Z,6.04
2023-05-17T00:53:55.538Z,6.08
2023-05-17T00:56:22.394Z,6.07
2023-05-17T00:58:48.770Z,6.06
2023-05-17T01:01:15.531Z,6.05
2023-05-17T01:03:42.203Z,6.05
2023-05-17T01:06:08.676Z,6.02
2023-05-17T01:08:35.183Z,5.98
2023-05-17T01:11:20.281Z,6.02
2023-05-17T01:13:52.226Z,5.98
2023-05-17T01:16:27.779Z,5.97
2023-05-17T01:19:00.239Z,5.90
2023-05-17T01:21:35.440Z,5.86
2023-05-17T01:24:12.309Z,5.73
2023-05-17T01:26:39.569Z,5.66
2023-05-17T01:29:07.988Z,5.61
2023-05-17T01:31:35.239Z,5.63
2023-05-17T01:34:01.920Z,5.67
2023-05-17T01:36:28.379Z,5.59
2023-05-17T01:38:54.752Z,5.55
2023-05-17T01:41:30.579Z,5.57
2023-05-17T01:43:59.643Z,5.57
2023-05-17T01:46:33.079Z,5.59
2023-05-17T01:49:08.916Z,5.62
2023-05-17T01:51:39.793Z,5.63
2023-05-17T01:54:11.360Z,5.57
2023-05-17T01:56:41.522Z,5.52
2023-05-17T01:59:08.761Z,5.46
2023-05-17T02:01:35.400Z,5.38
2023-05-17T02:04:01.866Z,5.33
2023-05-17T02:06:28.352Z,5.31
2023-05-17T02:08:54.708Z,5.26
2023-05-17T02:11:21.182Z,5.23
2023-05-17T02:13:47.529Z,5.24
2023-05-17T02:16:14.146Z,5.20
2023-05-17T02:18:41.361Z,5.19
2023-05-17T02:21:08.530Z,5.09
2023-05-17T02:23:34.946Z,5.09
2023-05-17T02:26:01.277Z,5.10
2023-05-17T02:28:27.649Z,5.13
2023-05-17T02:30:54.707Z,5.05
2023-05-17T02:33:21.295Z,5.05
2023-05-17T02:35:49.107Z,5.05
2023-05-17T02:38:15.950Z,5.00
2023-05-17T02:40:42.575Z,4.97
2023-05-17T02:43:08.933Z,5.00
2023-05-17T02:45:35.486Z,4.97
2023-05-17T02:48:01.885Z,5.01
2023-05-17T02:50:28.299Z,4.97
2023-05-17T02:52:54.639Z,5.02
2023-05-17T02:55:21.564Z,4.98
2023-05-17T02:57:47.922Z,4.97
2023-05-17T03:00:14.523Z,4.90
2023-05-17T03:02:40.914Z,4.90
2023-05-17T03:05:08.358Z,4.87
2023-05-17T03:07:34.794Z,4.89
2023-05-17T03:10:01.254Z,4.91
2023-05-17T03:12:29.430Z,4.94
2023-05-17T03:14:55.992Z,4.88
2023-05-17T03:17:22.356Z,4.86
2023-05-17T03:19:48.754Z,4.84
2023-05-17T03:22:15.283Z,4.83
2023-05-17T03:24:41.755Z,4.79
2023-05-17T03:27:08.151Z,4.78
2023-05-17T03:29:34.538Z,4.77
2023-05-17T03:32:01.072Z,4.68
2023-05-17T03:34:27.435Z,4.68
2023-05-17T03:36:53.897Z,4.69
2023-05-17T03:39:20.230Z,4.76
2023-05-17T03:41:46.599Z,4.72
2023-05-17T03:44:13.035Z,4.68
2023-05-17T03:46:39.355Z,4.67
2023-05-17T03:49:05.800Z,4.66
2023-05-17T03:51:32.216Z,4.66
2023-05-17T03:53:59.995Z,4.67
2023-05-17T03:56:26.393Z,4.63
2023-05-17T03:58:52.736Z,4.62
2023-05-17T04:01:20.324Z,4.76
2023-05-17T04:03:47.203Z,4.80
2023-05-17T04:06:13.894Z,4.89
2023-05-17T04:08:40.433Z,4.93
2023-05-17T04:11:13.952Z,4.98
2023-05-17T04:13:40.991Z,5.07
2023-05-17T04:16:10.665Z,5.15
2023-05-17T04:18:37.769Z,5.22
2023-05-17T04:21:05.263Z,5.29
2023-05-17T04:23:32.222Z,5.33
2023-05-17T04:25:58.678Z,5.42
2023-05-17T04:28:25.964Z,5.55
2023-05-17T04:30:53.029Z,5.70
2023-05-17T04:33:19.903Z,5.87
2023-05-17T04:35:46.724Z,5.98
2023-05-17T04:38:13.458Z,6.10
2023-05-17T04:40:39.782Z,6.27
2023-05-17T04:43:06.178Z,6.28
2023-05-17T04:45:33.560Z,6.37
2023-05-17T04:48:00.022Z,6.48
2023-05-17T04:50:26.827Z,6.50
2023-05-17T04:52:53.191Z,6.63
2023-05-17T04:55:19.634Z,6.82
2023-05-17T04:57:46.050Z,6.79
2023-05-17T05:00:14.155Z,6.84
2023-05-17T05:02:40.801Z,6.83
2023-05-17T05:05:07.430Z,6.96
2023-05-17T05:07:33.769Z,7.23
2023-05-17T05:10:00.215Z,7.39
2023-05-17T05:12:26.641Z,7.80
2023-05-17T05:14:53.037Z,7.66
2023-05-17T05:17:19.483Z,7.50
2023-05-17T05:19:46.130Z,7.34
2023-05-17T05:22:12.464Z,7.33
2023-05-17T05:24:39.137Z,7.45
2023-05-17T05:27:07.095Z,7.49
2023-05-17T05:29:33.660Z,7.96
2023-05-17T05:32:00.401Z,8.36
2023-05-17T05:34:28.512Z,8.40
2023-05-17T05:36:54.994Z,8.81
2023-05-17T05:39:21.324Z,9.27
2023-05-17T05:41:47.649Z,9.14
2023-05-17T05:44:14.087Z,8.85
2023-05-17T05:46:40.525Z,9.02
2023-05-17T05:49:06.940Z,9.66
2023-05-17T05:51:33.422Z,9.49
2023-05-17T05:54:00.083Z,9.78
2023-05-17T05:56:28.115Z,10.18
2023-05-17T05:58:55.122Z,10.15
2023-05-17T06:01:22.284Z,10.14
2023-05-17T06:03:48.666Z,10.17
2023-05-17T06:06:16.777Z,10.28
2023-05-17T06:08:45.672Z,10.54
2023-05-17T06:11:12.098Z,10.82
2023-05-17T06:13:38.424Z,11.14
2023-05-17T06:16:06.109Z,11.25
2023-05-17T06:18:33.095Z,11.58
2023-05-17T06:20:59.508Z,11.39
2023-05-17T06:23:25.859Z,10.99
2023-05-17T06:25:52.599Z,10.30
2023-05-17T06:28:19.056Z,9.85
2023-05-17T06:30:45.508Z,9.98
2023-05-17T06:33:12.001Z,9.82
2023-05-17T06:35:54.929Z,9.79
2023-05-17T06:38:22.808Z,10.19
2023-05-17T06:40:55.699Z,10.69
2023-05-17T06:43:22.195Z,11.28
2023-05-17T06:45:48.548Z,11.32
2023-05-17T06:48:15.659Z,11.99
2023-05-17T06:50:42.154Z,12.27
2023-05-17T06:53:08.972Z,12.02
2023-05-17T06:55:35.532Z,12.79
2023-05-17T06:58:01.966Z,12.86
2023-05-17T07:00:28.909Z,12.58
2023-05-17T07:02:55.975Z,11.71
2023-05-17T07:05:24.085Z,11.43
2023-05-17T07:07:50.574Z,11.69
2023-05-17T07:10:17.040Z,12.10
2023-05-17T07:12:43.391Z,12.68
2023-05-17T07:15:10.130Z,13.20
2023-05-17T07:17:37.312Z,13.90
2023-05-17T07:20:06.211Z,13.90
2023-05-17T07:22:32.967Z,13.98
2023-05-17T07:24:59.358Z,13.41
2023-05-17T07:27:25.827Z,14.45
2023-05-17T07:29:52.273Z,15.22
2023-05-17T07:32:18.611Z,15.44
2023-05-17T07:34:45.794Z,15.64
2023-05-17T07:37:12.282Z,15.56
2023-05-17T07:39:38.700Z,14.66
2023-05-17T07:42:05.817Z,13.69
2023-05-17T07:44:32.226Z,13.01
2023-05-17T07:46:58.596Z,12.87
2023-05-17T07:49:25.128Z,12.23
2023-05-17T07:51:52.122Z,12.34
2023-05-17T07:54:27.568Z,13.06
2023-05-17T07:56:55.331Z,14.13
2023-05-17T07:59:22.212Z,14.60
2023-05-17T08:01:48.593Z,14.00
2023-05-17T08:04:15.022Z,13.14
2023-05-17T08:06:42.446Z,13.48
2023-05-17T08:09:11.691Z,13.44
2023-05-17T08:11:41.491Z,13.24
2023-05-17T08:14:07.914Z,12.88
2023-05-17T08:16:34.305Z,12.56
2023-05-17T08:19:00.808Z,12.47
2023-05-17T08:21:27.248Z,12.90
2023-05-17T08:23:53.697Z,12.76
2023-05-17T08:26:20.179Z,13.02
2023-05-17T08:28:46.656Z,14.04
2023-05-17T08:31:13.046Z,14.45
2023-05-17T08:33:39.749Z,14.33
2023-05-17T08:36:08.292Z,14.76
2023-05-17T08:38:34.775Z,13.57
2023-05-17T08:41:02.138Z,13.25
2023-05-17T08:43:28.813Z,12.80
2023-05-17T08:45:57.956Z,12.63
2023-05-17T08:48:26.367Z,12.27
2023-05-17T08:50:54.316Z,12.06
2023-05-17T08:53:20.866Z,12.24
2023-05-17T08:55:50.591Z,12.46
2023-05-17T08:58:19.396Z,12.51
2023-05-17T09:00:46.645Z,12.24
2023-05-17T09:03:15.913Z,12.16
2023-05-17T09:05:43.409Z,12.35
2023-05-17T09:08:13.925Z,12.07
2023-05-17T09:10:40.854Z,12.10
2023-05-17T09:13:07.615Z,12.43
2023-05-17T09:15:34.502Z,12.75
2023-05-17T09:18:01.135Z,12.36
2023-05-17T09:20:35.113Z,12.35
2023-05-17T09:23:02.082Z,12.62
2023-05-17T09:25:29.266Z,12.63
2023-05-17T09:28:01.771Z,12.78
2023-05-17T09:30:32.310Z,12.83
2023-05-17T09:33:04.796Z,12.88
2023-05-17T09:35:31.628Z,12.85
2023-05-17T09:38:06.302Z,13.46
2023-05-17T09:40:32.864Z,13.23
2023-05-17T09:42:59.654Z,13.11
2023-05-17T09:45:26.644Z,12.73
2023-05-17T09:47:53.649Z,12.53
2023-05-17T09:50:20.509Z,12.38
2023-05-17T09:52:47.088Z,12.50
2023-05-17T09:55:13.655Z,12.61
2023-05-17T09:57:40.542Z,12.68
2023-05-17T10:00:12.399Z,12.98
2023-05-17T10:02:41.230Z,12.96
2023-05-17T10:05:10.261Z,12.79
2023-05-17T10:07:37.790Z,12.85
2023-05-17T10:10:05.164Z,12.78
2023-05-17T10:12:33.794Z,12.71
2023-05-17T10:15:00.374Z,12.51
2023-05-17T10:17:28.262Z,12.41
2023-05-17T10:19:55.320Z,12.30
2023-05-17T10:22:23.626Z,12.66
2023-05-17T10:24:53.996Z,13.81
2023-05-17T10:27:20.851Z,14.90
2023-05-17T10:29:50.154Z,15.23
2023-05-17T10:32:19.056Z,14.91
2023-05-17T10:34:49.586Z,13.50
2023-05-17T10:37:24.319Z,12.78
2023-05-17T10:39:52.189Z,12.60
2023-05-17T10:42:19.195Z,12.68
2023-05-17T10:44:45.827Z,12.49
2023-05-17T10:47:14.138Z,12.57
2023-05-17T10:49:41.985Z,12.81
2023-05-17T10:52:27.456Z,13.84
2023-05-17T10:54:55.165Z,14.22
2023-05-17T10:57:51.204Z,14.52
2023-05-17T11:00:21.164Z,14.75
2023-05-17T11:02:49.040Z,14.03
2023-05-17T11:05:25.937Z,13.97
2023-05-17T11:07:52.558Z,14.92
2023-05-17T11:10:18.963Z,15.26
2023-05-17T11:12:48.066Z,15.48
2023-05-17T11:15:15.314Z,15.34
2023-05-17T11:17:46.493Z,14.87
2023-05-17T11:20:16.866Z,14.37
2023-05-17T11:23:07.059Z,14.10
2023-05-17T11:25:35.800Z,14.60
2023-05-17T11:28:09.142Z,15.04
2023-05-17T11:30:40.101Z,14.21
2023-05-17T11:33:13.535Z,14.34
2023-05-17T11:35:44.693Z,14.16
2023-05-17T11:38:14.576Z,14.47
2023-05-17T11:40:41.195Z,15.31
2023-05-17T11:43:11.483Z,15.26
2023-05-17T11:45:45.310Z,15.25
2023-05-17T11:48:12.615Z,14.69
2023-05-17T11:50:39.681Z,14.39
2023-05-17T11:53:07.199Z,14.28
2023-05-17T11:55:37.053Z,14.63
2023-05-17T11:58:04.056Z,15.24
2023-05-17T12:00:30.755Z,15.34
2023-05-17T12:02:57.764Z,15.38
2023-05-17T12:05:24.225Z,15.43
2023-05-17T12:07:52.873Z,15.18
2023-05-17T12:10:19.224Z,15.32
2023-05-17T12:12:45.701Z,15.43
2023-05-17T12:15:17.806Z,15.81
2023-05-17T12:17:45.322Z,15.84
2023-05-17T12:20:12.157Z,15.99
2023-05-17T12:22:54.515Z,15.82
2023-05-17T12:25:23.418Z,15.48
2023-05-17T12:27:50.897Z,15.53
2023-05-17T12:30:17.684Z,16.15
2023-05-17T12:32:44.962Z,16.40
2023-05-17T12:35:12.030Z,16.93
2023-05-17T12:37:38.723Z,17.23
2023-05-17T12:40:05.499Z,16.33
2023-05-17T12:42:32.180Z,16.13
2023-05-17T12:45:01.683Z,15.83
2023-05-17T12:47:31.903Z,15.53
2023-05-17T12:50:00.014Z,15.33
2023-05-17T12:52:26.358Z,15.49
2023-05-17T12:54:52.699Z,15.81
2023-05-17T12:57:20.052Z,15.84
2023-05-17T12:59:50.037Z,15.44
2023-05-17T13:02:17.212Z,15.41
2023-05-17T13:04:43.746Z,15.51
2023-05-17T13:07:10.114Z,15.48
2023-05-17T13:09:45.756Z,15.50
2023-05-17T13:12:12.073Z,15.49
2023-05-17T13:14:38.556Z,15.51
2023-05-17T13:17:05.872Z,15.03
2023-05-17T13:19:32.443Z,15.33
2023-05-17T13:21:58.991Z,15.40
2023-05-17T13:24:26.846Z,15.57
2023-05-17T13:26:53.155Z,15.79
2023-05-17T13:29:28.420Z,16.02
2023-05-17T13:32:01.933Z,16.01
2023-05-17T13:34:28.320Z,16.45
2023-05-17T13:36:57.105Z,15.99
2023-05-17T13:39:23.526Z,16.14
2023-05-17T13:41:49.953Z,16.43
2023-05-17T13:44:16.324Z,16.22
2023-05-17T13:46:42.677Z,15.75
2023-05-17T13:49:09.663Z,15.47
2023-05-17T13:51:37.679Z,15.33
2023-05-17T13:54:05.370Z,15.52
2023-05-17T13:56:32.127Z,15.24
2023-05-17T13:58:58.616Z,15.20
2023-05-17T14:01:25.259Z,15.30
2023-05-17T14:03:51.611Z,15.38
2023-05-17T14:06:18.246Z,15.26
2023-05-17T14:08:46.236Z,15.38
2023-05-17T14:11:12.667Z,15.27
2023-05-17T14:13:38.983Z,15.15
2023-05-17T14:16:05.612Z,15.34
2023-05-17T14:18:32.621Z,15.32
2023-05-17T14:20:59.320Z,15.43
2023-05-17T14:23:26.112Z,15.08
2023-05-17T14:25:52.487Z,14.73
2023-05-17T14:28:18.911Z,15.02
2023-05-17T14:30:45.675Z,15.23
2023-05-17T14:33:12.176Z,15.41
2023-05-17T14:35:38.711Z,15.46
2023-05-17T14:38:05.145Z,15.29
2023-05-17T14:40:31.711Z,15.22
2023-05-17T14:42:58.136Z,14.93
2023-05-17T14:45:24.542Z,14.90
2023-05-17T14:47:51.338Z,14.76
2023-05-17T14:50:17.713Z,14.86
2023-05-17T14:52:44.462Z,14.84
2023-05-17T14:55:10.827Z,15.02
2023-05-17T14:57:37.171Z,14.94
2023-05-17T15:00:10.251Z,15.06
2023-05-17T15:02:37.142Z,15.10
2023-05-17T15:05:04.217Z,15.25
2023-05-17T15:07:30.697Z,15.52
2023-05-17T15:09:57.036Z,15.53
2023-05-17T15:12:23.775Z,15.67
2023-05-17T15:14:50.268Z,15.60
2023-05-17T15:17:16.799Z,15.65
2023-05-17T15:19:43.264Z,15.81
2023-05-17T15:22:09.658Z,16.19
2023-05-17T15:24:37.511Z,15.87
2023-05-17T15:27:03.965Z,16.00
2023-05-17T15:29:31.213Z,15.99
2023-05-17T15:32:01.510Z,15.57
2023-05-17T15:34:29.183Z,15.54
2023-05-17T15:36:56.538Z,15.95
2023-05-17T15:39:22.875Z,15.51
2023-05-17T15:41:49.350Z,15.68
2023-05-17T15:44:16.990Z,15.45
2023-05-17T15:46:43.332Z,15.56
2023-05-17T15:49:09.711Z,15.55
2023-05-17T15:51:36.143Z,15.93
2023-05-17T15:54:02.516Z,15.98
2023-05-17T15:56:28.911Z,16.17
2023-05-17T15:58:55.320Z,16.37
2023-05-17T16:01:21.799Z,16.98
2023-05-17T16:03:48.304Z,16.96
2023-05-17T16:06:14.661Z,18.20
2023-05-17T16:08:41.403Z,18.29
2023-05-17T16:11:08.054Z,18.05
2023-05-17T16:13:34.368Z,17.23
2023-05-17T16:16:00.721Z,16.86
2023-05-17T16:18:27.422Z,16.20
2023-05-17T16:21:00.028Z,16.13
2023-05-17T16:23:26.513Z,16.14
2023-05-17T16:25:54.469Z,16.09
2023-05-17T16:28:21.605Z,16.12
2023-05-17T16:30:48.857Z,16.19
2023-05-17T16:33:16.183Z,16.27
2023-05-17T16:35:43.223Z,16.04
2023-05-17T16:38:09.538Z,15.82
2023-05-17T16:40:36.108Z,15.70
2023-05-17T16:43:02.407Z,15.52
2023-05-17T16:45:28.977Z,15.23
2023-05-17T16:47:55.454Z,15.13
2023-05-17T16:50:21.891Z,14.89
2023-05-17T16:52:48.231Z,14.63
2023-05-17T16:55:14.558Z,14.68
2023-05-17T16:57:41.950Z,14.61
2023-05-17T17:00:08.758Z,14.51
2023-05-17T17:02:35.097Z,14.48
2023-05-17T17:05:01.462Z,14.52
2023-05-17T17:07:27.757Z,14.34
2023-05-17T17:09:54.082Z,14.51
2023-05-17T17:12:24.153Z,14.47
2023-05-17T17:14:51.742Z,14.52
2023-05-17T17:17:18.046Z,14.57
2023-05-17T17:19:44.428Z,14.55
2023-05-17T17:22:11.793Z,14.56
2023-05-17T17:24:38.533Z,14.44
2023-05-17T17:27:05.028Z,14.36
2023-05-17T17:29:33.852Z,14.44
2023-05-17T17:32:00.319Z,14.53
2023-05-17T17:34:26.718Z,14.48
2023-05-17T17:36:53.614Z,14.27
2023-05-17T17:39:19.946Z,14.35
2023-05-17T17:41:46.285Z,14.38
2023-05-17T17:44:12.576Z,14.28
2023-05-17T17:46:39.010Z,14.40
2023-05-17T17:49:05.312Z,13.99
2023-05-17T17:51:31.653Z,13.72
2023-05-17T17:53:58.023Z,13.63
2023-05-17T17:56:25.713Z,13.68
2023-05-17T17:58:55.963Z,13.51
2023-05-17T18:01:23.138Z,13.54
2023-05-17T18:03:49.549Z,13.41
2023-05-17T18:06:16.211Z,13.42
2023-05-17T18:08:42.672Z,13.22
2023-05-17T18:11:09.107Z,13.21
2023-05-17T18:13:35.632Z,13.23
2023-05-17T18:16:02.058Z,13.13
2023-05-17T18:18:28.422Z,13.12
2023-05-17T18:20:54.780Z,12.96
2023-05-17T18:23:21.247Z,12.84
2023-05-17T18:25:50.426Z,12.81
2023-05-17T18:28:18.323Z,12.70
2023-05-17T18:30:47.937Z,12.63
2023-05-17T18:33:14.376Z,12.64
2023-05-17T18:35:40.792Z,12.57
2023-05-17T18:38:07.168Z,12.42
2023-05-17T18:40:33.460Z,12.35
2023-05-17T18:42:59.768Z,12.47
2023-05-17T18:45:26.165Z,12.30
2023-05-17T18:47:52.574Z,12.17
2023-05-17T18:50:18.966Z,12.14
2023-05-17T18:52:45.343Z,12.14
2023-05-17T18:55:11.697Z,12.01
2023-05-17T18:57:38.004Z,11.99
2023-05-17T19:00:04.563Z,12.01
2023-05-17T19:02:31.223Z,11.90
2023-05-17T19:04:57.583Z,11.87
2023-05-17T19:07:23.923Z,11.84
2023-05-17T19:09:50.220Z,11.70
2023-05-17T19:12:16.624Z,11.64
2023-05-17T19:14:43.032Z,11.61
2023-05-17T19:17:10.186Z,11.58
2023-05-17T19:19:36.589Z,11.56
2023-05-17T19:22:04.643Z,11.45
2023-05-17T19:24:31.216Z,11.40
2023-05-17T19:26:57.543Z,11.38
2023-05-17T19:29:23.885Z,11.34
2023-05-17T19:31:51.446Z,11.34
2023-05-17T19:34:17.816Z,11.14
2023-05-17T19:36:44.130Z,11.15
2023-05-17T19:39:10.453Z,11.21
2023-05-17T19:41:36.768Z,11.11
2023-05-17T19:44:03.100Z,11.05
2023-05-17T19:46:29.511Z,11.06
2023-05-17T19:48:57.254Z,11.04
2023-05-17T19:51:23.585Z,10.88
2023-05-17T19:53:53.792Z,10.81
2023-05-17T19:56:21.318Z,10.82
2023-05-17T19:58:47.640Z,10.78
2023-05-17T20:01:14.001Z,10.72
2023-05-17T20:03:40.657Z,10.73
2023-05-17T20:06:07.115Z,10.70
2023-05-17T20:08:33.469Z,10.64
2023-05-17T20:10:59.791Z,10.63
2023-05-17T20:13:28.586Z,10.57
2023-05-17T20:15:55.011Z,10.63
2023-05-17T20:18:22.094Z,10.59
2023-05-17T20:20:48.576Z,10.62
2023-05-17T20:23:14.971Z,10.61
2023-05-17T20:25:41.756Z,10.61
2023-05-17T20:28:08.089Z,10.56
2023-05-17T20:30:34.429Z,10.60
2023-05-17T20:33:00.945Z,10.57
2023-05-17T20:35:27.337Z,10.55
2023-05-17T20:37:53.633Z,10.54
2023-05-17T20:40:20.099Z,10.49
2023-05-17T20:42:47.317Z,10.46
2023-05-17T20:45:17.677Z,10.43
2023-05-17T20:47:44.064Z,10.36
2023-05-17T20:50:12.568Z,10.32
2023-05-17T20:52:39.955Z,10.31
2023-05-17T20:55:07.809Z,10.30
2023-05-17T20:57:34.127Z,10.31
2023-05-17T21:00:00.672Z,10.26
2023-05-17T21:02:27.193Z,10.25
2023-05-17T21:04:54.607Z,10.24
2023-05-17T21:07:21.079Z,10.27
2023-05-17T21:09:47.461Z,10.17
2023-05-17T21:12:13.838Z,9.93
2023-05-17T21:14:40.169Z,9.93
2023-05-17T21:17:06.529Z,10.00
2023-05-17T21:19:32.897Z,10.02
2023-05-17T21:21:59.288Z,10.00
2023-05-17T21:24:25.911Z,9.97
2023-05-17T21:26:52.262Z,9.95
2023-05-17T21:29:18.662Z,9.90
2023-05-17T21:31:44.997Z,9.88
2023-05-17T21:34:11.736Z,9.95
2023-05-17T21:36:38.048Z,9.85
2023-05-17T21:39:04.371Z,9.77
2023-05-17T21:41:31.388Z,9.79
2023-05-17T21:43:57.711Z,9.71
2023-05-17T21:46:24.072Z,9.74
2023-05-17T21:48:50.405Z,9.74
2023-05-17T21:51:16.992Z,9.68
2023-05-17T21:53:43.284Z,9.69
2023-05-17T21:56:09.604Z,9.60
2023-05-17T21:58:35.944Z,9.71
2023-05-17T22:01:02.591Z,9.47
2023-05-17T22:03:29.043Z,9.45
2023-05-17T22:05:55.424Z,9.49
2023-05-17T22:08:21.717Z,9.38
2023-05-17T22:10:50.107Z,9.33
2023-05-17T22:13:18.150Z,9.31
2023-05-17T22:15:45.170Z,9.39
2023-05-17T22:18:12.432Z,9.27
2023-05-17T22:20:39.056Z,9.07
2023-05-17T22:23:05.541Z,9.11
2023-05-17T22:25:31.864Z,9.09
2023-05-17T22:27:58.273Z,9.11
2023-05-17T22:30:24.593Z,9.10
2023-05-17T22:32:54.526Z,9.00
2023-05-17T22:35:21.093Z,8.97
2023-05-17T22:37:47.452Z,9.10
2023-05-17T22:40:13.758Z,9.03
2023-05-17T22:42:40.095Z,8.96
2023-05-17T22:45:07.089Z,8.93
2023-05-17T22:47:33.955Z,8.89
2023-05-17T22:50:00.750Z,9.05
2023-05-17T22:52:27.186Z,8.96
2023-05-17T22:54:53.511Z,8.89
2023-05-17T22:57:19.847Z,8.94
2023-05-17T22:59:46.390Z,8.91
2023-05-17T23:02:12.852Z,8.94
2023-05-17T23:04:40.150Z,8.83
2023-05-17T23:07:09.754Z,8.80
2023-05-17T23:09:40.430Z,8.73
2023-05-17T23:12:07.206Z,8.72
2023-05-17T23:14:34.147Z,8.78
2023-05-17T23:17:02.175Z,8.77
2023-05-17T23:19:29.183Z,8.67
2023-05-17T23:21:56.207Z,8.65
2023-05-17T23:24:25.913Z,8.72
2023-05-17T23:26:52.612Z,8.71
2023-05-17T23:29:19.015Z,8.70
2023-05-17T23:31:47.969Z,8.68
2023-05-17T23:34:14.960Z,8.74
2023-05-17T23:36:41.347Z,8.63
2023-05-17T23:39:08.370Z,8.54
2023-05-17T23:41:37.675Z,8.46
2023-05-17T23:44:04.720Z,8.49
2023-05-17T23:46:31.224Z,8.50
2023-05-17T23:48:57.924Z,8.54
2023-05-17T23:51:24.294Z,8.41
2023-05-17T23:53:50.705Z,8.39
2023-05-17T23:56:17.600Z,8.39
2023-05-17T23:58:44.505Z,8.37
